createdAt,value
2017-05-11T00:00:17.968Z,71.42
2017-05-11T00:01:19.399Z,71.67
2017-05-11T00:02:20.817Z,71.51
2017-05-11T00:03:22.239Z,71.42
2017-05-11T00:04:23.668Z,71.42
2017-05-11T00:05:25.090Z,71.42
2017-05-11T00:06:27.395Z,71.32
2017-05-11T00:07:28.820Z,71.42
2017-05-11T00:08:30.247Z,70.94
2017-05-11T00:09:31.675Z,71.51
2017-05-11T00:10:33.086Z,71.98
2017-05-11T00:11:34.521Z,71.51
2017-05-11T00:12:35.945Z,71.51
2017-05-11T00:13:37.366Z,71.70
2017-05-11T00:14:39.774Z,72.17
2017-05-11T00:15:41.189Z,71.86
2017-05-11T00:16:42.615Z,72.33
2017-05-11T00:17:44.048Z,72.90
2017-05-11T00:18:45.473Z,72.81
2017-05-11T00:19:46.902Z,72.81
2017-05-11T00:20:48.330Z,72.90
2017-05-11T00:21:49.757Z,73.38
2017-05-11T00:22:51.180Z,73.47
2017-05-11T00:23:52.599Z,73.57
2017-05-11T00:24:54.016Z,72.62
2017-05-11T00:25:55.435Z,73.19
2017-05-11T00:26:56.858Z,73.47
2017-05-11T00:27:58.283Z,73.28
2017-05-11T00:28:59.706Z,73.57
2017-05-11T00:30:01.124Z,73.66
2017-05-11T00:31:02.546Z,73.47
2017-05-11T00:32:03.973Z,73.85
2017-05-11T00:33:05.398Z,73.66
2017-05-11T00:34:06.824Z,73.95
2017-05-11T00:35:08.249Z,74.62
2017-05-11T00:36:09.675Z,74.33
2017-05-11T00:37:11.093Z,74.14
2017-05-11T00:38:12.517Z,73.85
2017-05-11T00:39:13.943Z,74.52
2017-05-11T00:40:15.367Z,74.52
2017-05-11T00:41:16.790Z,74.52
2017-05-11T00:42:18.208Z,74.04
2017-05-11T00:43:19.636Z,73.66
2017-05-11T00:44:21.073Z,74.04
2017-05-11T00:45:22.489Z,74.33
2017-05-11T00:46:23.918Z,74.24
2017-05-11T00:47:25.336Z,73.95
2017-05-11T00:48:26.757Z,74.24
2017-05-11T00:49:28.189Z,74.52
2017-05-11T00:50:29.614Z,74.71
2017-05-11T00:51:31.041Z,74.77
2017-05-11T00:52:32.460Z,74.43
2017-05-11T00:53:33.876Z,74.43
2017-05-11T00:54:36.044Z,73.63
2017-05-11T00:55:37.465Z,74.77
2017-05-11T00:56:38.888Z,74.90
2017-05-11T00:57:40.314Z,74.33
2017-05-11T00:58:41.734Z,74.24
2017-05-11T00:59:43.159Z,73.85
2017-05-11T01:00:44.579Z,73.85
2017-05-11T01:01:45.995Z,74.52
2017-05-11T01:02:47.418Z,74.87
2017-05-11T01:03:48.842Z,74.96
2017-05-11T01:04:50.264Z,75.09
2017-05-11T01:05:51.687Z,75.81
2017-05-11T01:06:53.114Z,76.67
2017-05-11T01:07:54.539Z,76.48
2017-05-11T01:08:55.956Z,76.29
2017-05-11T01:09:57.374Z,75.62
2017-05-11T01:10:58.797Z,76.01
2017-05-11T01:12:00.217Z,76.01
2017-05-11T01:13:01.646Z,75.53
2017-05-11T01:14:03.075Z,76.10
2017-05-11T01:15:04.516Z,76.10
2017-05-11T01:16:05.933Z,75.91
2017-05-11T01:17:07.357Z,75.24
2017-05-11T01:18:08.790Z,75.53
2017-05-11T01:19:10.218Z,75.05
2017-05-11T01:20:11.643Z,74.48
2017-05-11T01:21:13.066Z,75.62
2017-05-11T01:22:14.492Z,77.01
2017-05-11T01:23:15.928Z,77.24
2017-05-11T01:24:17.335Z,76.10
2017-05-11T01:25:18.758Z,76.39
2017-05-11T01:26:20.179Z,76.20
2017-05-11T01:27:22.183Z,76.29
2017-05-11T01:28:23.605Z,76.86
2017-05-11T01:29:25.027Z,76.48
2017-05-11T01:30:26.449Z,75.81
2017-05-11T01:31:27.873Z,75.24
2017-05-11T01:32:29.290Z,75.43
2017-05-11T01:33:30.708Z,75.43
2017-05-11T01:34:32.129Z,76.16
2017-05-11T01:35:33.556Z,77.11
2017-05-11T01:36:34.978Z,77.87
2017-05-11T01:37:36.401Z,78.16
2017-05-11T01:38:37.826Z,78.16
2017-05-11T01:39:39.251Z,77.58
2017-05-11T01:40:40.667Z,76.35
2017-05-11T01:41:42.087Z,76.82
2017-05-11T01:42:43.514Z,77.68
2017-05-11T01:43:44.936Z,77.01
2017-05-11T01:44:46.359Z,77.77
2017-05-11T01:45:47.791Z,77.58
2017-05-11T01:46:49.219Z,77.11
2017-05-11T01:47:50.639Z,76.73
2017-05-11T01:48:52.069Z,76.35
2017-05-11T01:49:53.482Z,76.54
2017-05-11T01:50:54.901Z,75.87
2017-05-11T01:51:56.325Z,75.87
2017-05-11T01:52:57.740Z,76.35
2017-05-11T01:53:59.168Z,77.39
2017-05-11T01:55:00.591Z,77.87
2017-05-11T01:56:02.011Z,77.87
2017-05-11T01:57:03.454Z,77.77
2017-05-11T01:58:04.881Z,76.35
2017-05-11T01:59:06.298Z,76.82
2017-05-11T02:00:07.719Z,76.35
2017-05-11T02:01:09.144Z,76.44
2017-05-11T02:02:10.568Z,76.25
2017-05-11T02:03:11.990Z,76.06
2017-05-11T02:04:13.405Z,76.78
2017-05-11T02:05:14.823Z,76.21
2017-05-11T02:06:16.251Z,76.97
2017-05-11T02:07:17.673Z,77.26
2017-05-11T02:08:19.107Z,77.26
2017-05-11T02:09:20.568Z,77.17
2017-05-11T02:10:21.955Z,77.36
2017-05-11T02:11:23.378Z,77.73
2017-05-11T02:12:24.826Z,77.73
2017-05-11T02:13:26.351Z,77.45
2017-05-11T02:14:27.772Z,78.21
2017-05-11T02:15:29.196Z,77.83
2017-05-11T02:16:30.629Z,78.59
2017-05-11T02:17:32.139Z,78.50
2017-05-11T02:18:33.563Z,78.21
2017-05-11T02:19:34.994Z,78.21
2017-05-11T02:20:36.496Z,78.50
2017-05-11T02:21:37.913Z,78.69
2017-05-11T02:22:39.340Z,78.40
2017-05-11T02:23:40.758Z,78.69
2017-05-11T02:24:42.182Z,79.60
2017-05-11T02:25:43.595Z,80.83
2017-05-11T02:26:45.020Z,81.30
2017-05-11T02:27:46.440Z,81.02
2017-05-11T02:28:47.860Z,81.40
2017-05-11T02:29:49.288Z,80.93
2017-05-11T02:30:50.704Z,80.83
2017-05-11T02:31:52.126Z,80.93
2017-05-11T02:32:53.548Z,80.02
2017-05-11T02:33:54.973Z,78.97
2017-05-11T02:34:56.391Z,78.78
2017-05-11T02:35:57.814Z,77.83
2017-05-11T02:36:59.234Z,78.02
2017-05-11T02:38:00.658Z,78.59
2017-05-11T02:39:02.069Z,79.83
2017-05-11T02:40:03.499Z,80.45
2017-05-11T02:41:04.923Z,80.11
2017-05-11T02:42:06.341Z,79.25
2017-05-11T02:43:07.767Z,78.30
2017-05-11T02:44:09.188Z,78.59
2017-05-11T02:45:10.612Z,78.78
2017-05-11T02:46:12.029Z,78.50
2017-05-11T02:47:13.449Z,78.64
2017-05-11T02:48:14.866Z,78.50
2017-05-11T02:49:16.301Z,78.21
2017-05-11T02:50:17.729Z,77.83
2017-05-11T02:51:19.154Z,78.30
2017-05-11T02:52:20.581Z,78.55
2017-05-11T02:53:21.999Z,78.74
2017-05-11T02:54:23.420Z,78.02
2017-05-11T02:55:24.835Z,78.21
2017-05-11T02:56:26.258Z,79.12
2017-05-11T02:57:27.689Z,79.63
2017-05-11T02:58:29.111Z,79.31
2017-05-11T02:59:30.536Z,79.50
2017-05-11T03:00:31.957Z,79.50
2017-05-11T03:01:33.379Z,79.03
2017-05-11T03:02:34.801Z,78.93
2017-05-11T03:03:36.223Z,79.50
2017-05-11T03:04:37.651Z,78.97
2017-05-11T03:05:39.066Z,78.64
2017-05-11T03:06:40.484Z,79.22
2017-05-11T03:07:41.905Z,78.27
2017-05-11T03:08:43.327Z,78.45
2017-05-11T03:09:44.746Z,78.45
2017-05-11T03:10:46.184Z,78.74
2017-05-11T03:11:47.606Z,79.12
2017-05-11T03:12:49.026Z,78.69
2017-05-11T03:13:50.442Z,78.69
2017-05-11T03:14:51.866Z,78.97
2017-05-11T03:15:53.291Z,78.59
2017-05-11T03:16:54.714Z,79.12
2017-05-11T03:17:56.136Z,79.35
2017-05-11T03:18:57.565Z,79.16
2017-05-11T03:19:58.994Z,79.16
2017-05-11T03:21:00.419Z,78.69
2017-05-11T03:22:01.845Z,78.83
2017-05-11T03:23:03.261Z,79.88
2017-05-11T03:24:04.686Z,79.97
2017-05-11T03:25:06.114Z,80.26
2017-05-11T03:26:07.537Z,80.45
2017-05-11T03:27:08.954Z,80.93
2017-05-11T03:28:10.370Z,81.30
2017-05-11T03:29:11.790Z,81.74
2017-05-11T03:30:13.211Z,81.93
2017-05-11T03:31:14.632Z,81.93
2017-05-11T03:32:16.056Z,81.59
2017-05-11T03:33:17.474Z,80.64
2017-05-11T03:34:18.897Z,80.45
2017-05-11T03:35:20.321Z,80.83
2017-05-11T03:36:21.743Z,80.45
2017-05-11T03:37:23.165Z,80.45
2017-05-11T03:38:24.580Z,80.88
2017-05-11T03:39:26.000Z,80.60
2017-05-11T03:40:27.417Z,80.79
2017-05-11T03:41:28.840Z,80.74
2017-05-11T03:42:30.261Z,80.26
2017-05-11T03:43:31.678Z,80.26
2017-05-11T03:44:33.100Z,80.35
2017-05-11T03:45:34.527Z,80.07
2017-05-11T03:46:35.937Z,79.79
2017-05-11T03:47:37.361Z,80.26
2017-05-11T03:48:38.794Z,80.88
2017-05-11T03:49:40.211Z,81.65
2017-05-11T03:50:41.641Z,81.30
2017-05-11T03:51:43.061Z,81.02
2017-05-11T03:52:44.480Z,80.45
2017-05-11T03:53:45.900Z,81.02
2017-05-11T03:54:47.321Z,81.59
2017-05-11T03:55:48.779Z,80.93
2017-05-11T03:56:50.193Z,81.21
2017-05-11T03:57:51.626Z,80.93
2017-05-11T03:58:53.047Z,81.30
2017-05-11T03:59:54.487Z,80.45
2017-05-11T04:00:55.907Z,80.26
2017-05-11T04:01:57.337Z,80.45
2017-05-11T04:02:58.762Z,79.69
2017-05-11T04:04:00.180Z,79.79
2017-05-11T04:05:01.614Z,80.64
2017-05-11T04:06:03.034Z,80.26
2017-05-11T04:07:04.469Z,79.79
2017-05-11T04:08:05.895Z,80.26
2017-05-11T04:09:07.320Z,79.88
2017-05-11T04:10:08.747Z,79.41
2017-05-11T04:11:10.171Z,78.83
2017-05-11T04:12:11.605Z,79.79
2017-05-11T04:13:13.029Z,79.97
2017-05-11T04:14:14.458Z,79.69
2017-05-11T04:15:15.870Z,80.07
2017-05-11T04:16:17.303Z,80.16
2017-05-11T04:17:18.733Z,79.92
2017-05-11T04:18:20.151Z,80.35
2017-05-11T04:19:21.575Z,80.26
2017-05-11T04:20:23.002Z,79.97
2017-05-11T04:21:24.435Z,80.45
2017-05-11T04:22:25.865Z,80.64
2017-05-11T04:23:27.293Z,81.12
2017-05-11T04:24:28.723Z,82.45
2017-05-11T04:25:30.153Z,82.35
2017-05-11T04:26:31.576Z,83.30
2017-05-11T04:27:33.003Z,83.30
2017-05-11T04:28:34.425Z,83.39
2017-05-11T04:29:35.850Z,83.59
2017-05-11T04:30:37.277Z,82.92
2017-05-11T04:31:38.700Z,82.54
2017-05-11T04:32:40.127Z,82.29
2017-05-11T04:33:41.549Z,81.63
2017-05-11T04:34:42.973Z,81.35
2017-05-11T04:35:44.403Z,81.63
2017-05-11T04:36:45.823Z,81.63
2017-05-11T04:37:47.252Z,81.82
2017-05-11T04:38:48.677Z,82.77
2017-05-11T04:39:50.101Z,82.87
2017-05-11T04:40:51.530Z,82.96
2017-05-11T04:41:52.953Z,83.15
2017-05-11T04:42:54.384Z,82.96
2017-05-11T04:43:55.807Z,82.96
2017-05-11T04:44:57.234Z,83.15
2017-05-11T04:45:58.665Z,83.15
2017-05-11T04:47:00.087Z,82.77
2017-05-11T04:48:01.513Z,82.58
2017-05-11T04:49:02.936Z,82.20
2017-05-11T04:50:04.366Z,82.29
2017-05-11T04:51:05.789Z,82.20
2017-05-11T04:52:07.214Z,82.15
2017-05-11T04:53:08.643Z,82.24
2017-05-11T04:54:10.070Z,81.86
2017-05-11T04:55:11.611Z,81.67
2017-05-11T04:56:13.038Z,81.10
2017-05-11T04:57:14.464Z,81.20
2017-05-11T04:58:15.890Z,80.86
2017-05-11T04:59:17.319Z,80.38
2017-05-11T05:00:18.747Z,79.91
2017-05-11T05:01:20.269Z,79.91
2017-05-11T05:02:21.690Z,79.14
2017-05-11T05:03:23.116Z,79.52
2017-05-11T05:04:25.203Z,79.43
2017-05-11T05:05:26.633Z,79.05
2017-05-11T05:06:28.055Z,78.96
2017-05-11T05:07:29.475Z,78.38
2017-05-11T05:08:30.910Z,79.43
2017-05-11T05:09:32.346Z,78.48
2017-05-11T05:10:33.766Z,78.23
2017-05-11T05:11:35.190Z,77.37
2017-05-11T05:12:36.611Z,78.52
2017-05-11T05:13:38.036Z,77.95
2017-05-11T05:14:39.462Z,78.23
2017-05-11T05:15:40.887Z,77.66
2017-05-11T05:16:42.310Z,77.66
2017-05-11T05:17:43.734Z,77.00
2017-05-11T05:18:45.159Z,77.47
2017-05-11T05:19:46.586Z,77.85
2017-05-11T05:20:48.017Z,77.76
2017-05-11T05:21:49.434Z,76.08
2017-05-11T05:22:50.854Z,76.42
2017-05-11T05:23:52.278Z,76.27
2017-05-11T05:24:53.715Z,75.95
2017-05-11T05:25:55.135Z,76.46
2017-05-11T05:26:56.561Z,76.56
2017-05-11T05:27:57.992Z,75.70
2017-05-11T05:28:59.413Z,75.32
2017-05-11T05:30:00.853Z,75.99
2017-05-11T05:31:02.283Z,75.04
2017-05-11T05:32:04.546Z,75.23
2017-05-11T05:33:05.969Z,75.51
2017-05-11T05:34:07.401Z,74.65
2017-05-11T05:35:08.823Z,73.61
2017-05-11T05:36:10.249Z,73.32
2017-05-11T05:37:11.677Z,73.89
2017-05-11T05:38:13.104Z,74.08
2017-05-11T05:39:14.527Z,73.61
2017-05-11T05:40:15.972Z,72.97
2017-05-11T05:41:17.395Z,72.69
2017-05-11T05:42:18.828Z,72.97
2017-05-11T05:43:20.258Z,72.69
2017-05-11T05:44:21.698Z,72.88
2017-05-11T05:45:23.112Z,72.21
2017-05-11T05:46:24.538Z,72.41
2017-05-11T05:47:25.963Z,72.88
2017-05-11T05:48:27.393Z,73.45
2017-05-11T05:49:28.819Z,72.31
2017-05-11T05:50:30.248Z,71.64
2017-05-11T05:51:31.672Z,71.55
2017-05-11T05:52:33.102Z,73.07
2017-05-11T05:53:34.528Z,73.93
2017-05-11T05:54:35.956Z,73.30
2017-05-11T05:55:37.388Z,73.01
2017-05-11T05:56:38.806Z,73.39
2017-05-11T05:57:40.231Z,73.11
2017-05-11T05:58:41.655Z,71.11
2017-05-11T05:59:43.090Z,72.72
2017-05-11T06:00:44.515Z,73.11
2017-05-11T06:01:45.953Z,70.82
2017-05-11T06:02:47.372Z,72.06
2017-05-11T06:03:48.799Z,72.63
2017-05-11T06:04:50.223Z,71.77
2017-05-11T06:05:51.672Z,71.30
2017-05-11T06:06:53.104Z,72.00
2017-05-11T06:07:54.537Z,70.38
2017-05-11T06:08:55.969Z,69.71
2017-05-11T06:09:57.397Z,69.14
2017-05-11T06:10:58.824Z,69.71
2017-05-11T06:12:00.255Z,69.43
2017-05-11T06:13:01.677Z,69.90
2017-05-11T06:14:04.012Z,71.14
2017-05-11T06:15:05.443Z,71.52
2017-05-11T06:16:06.879Z,71.81
2017-05-11T06:17:08.305Z,71.04
2017-05-11T06:18:09.733Z,72.28
2017-05-11T06:19:11.170Z,71.91
2017-05-11T06:20:12.588Z,69.81
2017-05-11T06:21:14.019Z,70.00
2017-05-11T06:22:15.454Z,68.76
2017-05-11T06:23:16.877Z,68.95
2017-05-11T06:24:18.302Z,68.98
2017-05-11T06:25:19.732Z,70.13
2017-05-11T06:26:21.156Z,70.32
2017-05-11T06:27:22.588Z,70.67
2017-05-11T06:28:24.019Z,69.17
2017-05-11T06:29:25.444Z,68.88
2017-05-11T06:30:26.879Z,69.37
2017-05-11T06:31:28.303Z,70.13
2017-05-11T06:32:29.733Z,68.32
2017-05-11T06:33:31.165Z,67.40
2017-05-11T06:34:32.598Z,68.82
2017-05-11T06:35:34.026Z,66.63
2017-05-11T06:36:35.455Z,66.44
2017-05-11T06:37:36.883Z,66.82
2017-05-11T06:38:38.311Z,66.25
2017-05-11T06:39:39.740Z,66.25
2017-05-11T06:40:41.173Z,66.72
2017-05-11T06:41:42.596Z,65.58
2017-05-11T06:42:44.030Z,64.62
2017-05-11T06:43:45.455Z,66.15
2017-05-11T06:44:46.886Z,64.65
2017-05-11T06:45:48.309Z,65.61
2017-05-11T06:46:49.741Z,66.66
2017-05-11T06:47:51.175Z,66.85
2017-05-11T06:48:52.595Z,68.00
2017-05-11T06:49:54.020Z,67.33
2017-05-11T06:50:55.451Z,66.19
2017-05-11T06:51:56.880Z,66.00
2017-05-11T06:52:58.306Z,64.69
2017-05-11T06:53:59.740Z,64.78
2017-05-11T06:55:01.168Z,63.73
2017-05-11T06:56:02.600Z,63.45
2017-05-11T06:57:04.028Z,64.12
2017-05-11T06:58:05.457Z,64.12
2017-05-11T06:59:06.888Z,62.78
2017-05-11T07:00:08.321Z,62.78
2017-05-11T07:01:09.738Z,63.48
2017-05-11T07:02:11.172Z,63.00
2017-05-11T07:03:12.607Z,63.76
2017-05-11T07:04:14.046Z,63.19
2017-05-11T07:05:15.474Z,60.80
2017-05-11T07:06:16.897Z,61.76
2017-05-11T07:07:18.325Z,62.52
2017-05-11T07:08:19.760Z,63.19
2017-05-11T07:09:21.198Z,62.74
2017-05-11T07:10:22.628Z,60.64
2017-05-11T07:11:24.051Z,59.97
2017-05-11T07:12:25.481Z,60.45
2017-05-11T07:13:26.912Z,60.06
2017-05-11T07:14:28.350Z,60.16
2017-05-11T07:15:29.783Z,59.20
2017-05-11T07:16:31.226Z,59.05
2017-05-11T07:17:32.660Z,58.47
2017-05-11T07:18:34.084Z,58.95
2017-05-11T07:19:35.515Z,58.28
2017-05-11T07:20:36.975Z,59.05
2017-05-11T07:21:38.887Z,58.76
2017-05-11T07:22:40.310Z,58.22
2017-05-11T07:23:41.747Z,57.64
2017-05-11T07:24:43.178Z,58.59
2017-05-11T07:25:44.602Z,59.27
2017-05-11T07:26:46.036Z,58.59
2017-05-11T07:27:47.475Z,58.50
2017-05-11T07:28:48.905Z,58.98
2017-05-11T07:29:50.336Z,57.95
2017-05-11T07:30:51.769Z,56.71
2017-05-11T07:31:53.198Z,56.99
2017-05-11T07:32:54.635Z,58.62
2017-05-11T07:33:56.070Z,56.32
2017-05-11T07:34:57.501Z,56.04
2017-05-11T07:35:58.934Z,54.99
2017-05-11T07:37:00.362Z,54.05
2017-05-11T07:38:01.797Z,56.04
2017-05-11T07:39:03.226Z,56.04
2017-05-11T07:40:04.653Z,54.60
2017-05-11T07:41:06.093Z,54.63
2017-05-11T07:42:07.521Z,51.46
2017-05-11T07:43:08.956Z,51.28
2017-05-11T07:44:10.389Z,50.32
2017-05-11T07:45:11.819Z,51.08
2017-05-11T07:46:13.259Z,50.89
2017-05-11T07:47:14.685Z,51.59
2017-05-11T07:48:16.117Z,53.09
2017-05-11T07:49:17.544Z,51.78
2017-05-11T07:50:18.976Z,49.76
2017-05-11T07:51:20.404Z,49.29
2017-05-11T07:52:21.832Z,48.04
2017-05-11T07:53:23.269Z,48.64
2017-05-11T07:54:24.700Z,49.60
2017-05-11T07:55:26.135Z,51.40
2017-05-11T07:56:27.568Z,49.79
2017-05-11T07:57:28.995Z,49.50
2017-05-11T07:58:30.427Z,47.58
2017-05-11T07:59:31.862Z,47.30
2017-05-11T08:00:33.294Z,49.21
2017-05-11T08:01:34.736Z,47.99
2017-05-11T08:02:36.164Z,48.18
2017-05-11T08:03:37.597Z,48.38
2017-05-11T08:04:39.028Z,48.47
2017-05-11T08:05:40.468Z,49.33
2017-05-11T08:06:41.894Z,48.66
2017-05-11T08:07:43.349Z,49.82
2017-05-11T08:08:44.780Z,48.95
2017-05-11T08:09:46.209Z,46.74
2017-05-11T08:10:47.643Z,46.26
2017-05-11T08:11:49.134Z,47.44
2017-05-11T08:12:50.569Z,48.38
2017-05-11T08:13:52.001Z,47.82
2017-05-11T08:14:53.436Z,46.28
2017-05-11T08:15:54.877Z,47.63
2017-05-11T08:16:56.308Z,46.50
2017-05-11T08:17:57.746Z,47.56
2017-05-11T08:18:59.189Z,47.56
2017-05-11T08:20:00.620Z,47.75
2017-05-11T08:21:02.043Z,47.66
2017-05-11T08:22:03.480Z,47.56
2017-05-11T08:23:04.907Z,45.35
2017-05-11T08:24:06.338Z,46.41
2017-05-11T08:25:07.772Z,45.76
2017-05-11T08:26:09.204Z,44.99
2017-05-11T08:27:10.642Z,45.66
2017-05-11T08:28:12.078Z,46.53
2017-05-11T08:29:13.515Z,46.53
2017-05-11T08:30:14.947Z,45.28
2017-05-11T08:31:16.381Z,45.66
2017-05-11T08:32:17.818Z,45.87
2017-05-11T08:33:19.248Z,45.87
2017-05-11T08:34:20.679Z,46.23
2017-05-11T08:35:22.152Z,45.37
2017-05-11T08:36:23.587Z,45.59
2017-05-11T08:37:25.025Z,45.01
2017-05-11T08:38:26.459Z,43.08
2017-05-11T08:39:27.887Z,43.68
2017-05-11T08:40:29.327Z,44.65
2017-05-11T08:41:30.770Z,46.09
2017-05-11T08:42:32.213Z,45.80
2017-05-11T08:43:33.649Z,45.42
2017-05-11T08:44:35.076Z,46.45
2017-05-11T08:45:36.512Z,46.26
2017-05-11T08:46:37.950Z,47.31
2017-05-11T08:47:39.388Z,45.01
2017-05-11T08:48:40.821Z,46.26
2017-05-11T08:49:42.289Z,45.01
2017-05-11T08:50:43.725Z,45.29
2017-05-11T08:51:45.158Z,45.68
2017-05-11T08:52:46.596Z,45.90
2017-05-11T08:53:48.092Z,47.22
2017-05-11T08:54:49.525Z,46.84
2017-05-11T08:55:50.962Z,47.61
2017-05-11T08:56:52.399Z,48.18
2017-05-11T08:57:53.838Z,48.28
2017-05-11T08:58:55.272Z,48.85
2017-05-11T08:59:56.716Z,47.70
2017-05-11T09:00:58.159Z,47.41
2017-05-11T09:01:59.602Z,48.28
2017-05-11T09:03:01.033Z,48.47
2017-05-11T09:04:02.571Z,48.57
2017-05-11T09:05:03.998Z,49.33
2017-05-11T09:06:05.440Z,49.24
2017-05-11T09:07:06.925Z,48.08
2017-05-11T09:08:08.356Z,45.78
2017-05-11T09:09:09.788Z,48.57
2017-05-11T09:10:11.222Z,46.64
2017-05-11T09:11:12.662Z,45.49
2017-05-11T09:12:14.100Z,49.53
2017-05-11T09:13:15.538Z,48.95
2017-05-11T09:14:16.968Z,47.70
2017-05-11T09:15:18.406Z,46.64
2017-05-11T09:16:19.856Z,50.01
2017-05-11T09:17:21.287Z,47.70
2017-05-11T09:18:22.787Z,47.70
2017-05-11T09:19:24.225Z,47.51
2017-05-11T09:20:25.661Z,47.31
2017-05-11T09:21:27.092Z,47.41
2017-05-11T09:22:28.524Z,45.99
2017-05-11T09:23:29.962Z,46.38
2017-05-11T09:24:31.396Z,47.34
2017-05-11T09:25:32.839Z,48.79
2017-05-11T09:26:34.271Z,50.04
2017-05-11T09:27:35.705Z,48.21
2017-05-11T09:28:37.146Z,48.88
2017-05-11T09:29:38.577Z,47.15
2017-05-11T09:30:40.756Z,48.33
2017-05-11T09:31:42.194Z,48.23
2017-05-11T09:32:43.629Z,47.75
2017-05-11T09:33:45.062Z,45.53
2017-05-11T09:34:46.504Z,46.42
2017-05-11T09:35:47.947Z,46.62
2017-05-11T09:36:49.399Z,47.51
2017-05-11T09:37:50.834Z,49.15
2017-05-11T09:38:52.265Z,47.51
2017-05-11T09:39:53.710Z,47.82
2017-05-11T09:40:55.726Z,46.55
2017-05-11T09:41:57.161Z,47.51
2017-05-11T09:42:58.601Z,45.89
2017-05-11T09:44:00.041Z,48.30
2017-05-11T09:45:01.484Z,45.82
2017-05-11T09:46:02.923Z,45.72
2017-05-11T09:47:04.358Z,43.52
2017-05-11T09:48:05.793Z,45.14
2017-05-11T09:49:07.238Z,44.18
2017-05-11T09:50:08.669Z,44.08
2017-05-11T09:51:10.105Z,43.12
2017-05-11T09:52:11.543Z,43.70
2017-05-11T09:53:12.980Z,42.73
2017-05-11T09:54:14.418Z,43.50
2017-05-11T09:55:15.854Z,43.00
2017-05-11T09:56:17.293Z,44.45
2017-05-11T09:57:18.729Z,44.56
2017-05-11T09:58:20.167Z,44.27
2017-05-11T09:59:21.609Z,43.50
2017-05-11T10:00:23.049Z,44.56
2017-05-11T10:01:24.484Z,44.49
2017-05-11T10:02:25.924Z,45.04
2017-05-11T10:03:27.352Z,45.84
2017-05-11T10:04:28.792Z,45.75
2017-05-11T10:05:30.228Z,45.65
2017-05-11T10:06:31.661Z,44.10
2017-05-11T10:07:33.105Z,43.14
2017-05-11T10:08:35.401Z,44.42
2017-05-11T10:09:36.832Z,43.84
2017-05-11T10:10:38.273Z,42.77
2017-05-11T10:11:39.715Z,43.66
2017-05-11T10:12:41.153Z,45.89
2017-05-11T10:13:42.632Z,43.74
2017-05-11T10:14:44.136Z,42.58
2017-05-11T10:15:45.577Z,43.24
2017-05-11T10:16:47.016Z,44.42
2017-05-11T10:17:48.473Z,42.94
2017-05-11T10:18:49.915Z,44.03
2017-05-11T10:19:51.352Z,43.28
2017-05-11T10:20:52.788Z,42.91
2017-05-11T10:21:54.229Z,42.72
2017-05-11T10:22:55.666Z,40.88
2017-05-11T10:23:57.189Z,40.20
2017-05-11T10:24:58.635Z,42.82
2017-05-11T10:26:00.076Z,42.55
2017-05-11T10:27:01.516Z,40.90
2017-05-11T10:28:02.951Z,40.42
2017-05-11T10:29:04.389Z,41.48
2017-05-11T10:30:05.832Z,40.32
2017-05-11T10:31:07.277Z,42.83
2017-05-11T10:32:08.720Z,41.48
2017-05-11T10:33:10.155Z,42.35
2017-05-11T10:34:11.593Z,40.90
2017-05-11T10:35:13.032Z,40.03
2017-05-11T10:36:14.467Z,41.48
2017-05-11T10:37:15.906Z,40.42
2017-05-11T10:38:17.342Z,41.58
2017-05-11T10:39:18.815Z,42.83
2017-05-11T10:40:20.249Z,40.32
2017-05-11T10:41:21.691Z,39.64
2017-05-11T10:42:23.132Z,40.40
2017-05-11T10:43:24.572Z,41.17
2017-05-11T10:44:26.013Z,42.72
2017-05-11T10:45:27.457Z,41.66
2017-05-11T10:46:28.895Z,41.08
2017-05-11T10:47:30.335Z,40.78
2017-05-11T10:48:31.777Z,40.98
2017-05-11T10:49:33.209Z,42.62
2017-05-11T10:50:34.681Z,42.35
2017-05-11T10:51:36.113Z,40.42
2017-05-11T10:52:37.551Z,39.55
2017-05-11T10:53:38.999Z,40.52
2017-05-11T10:54:40.442Z,42.72
2017-05-11T10:55:41.889Z,42.83
2017-05-11T10:56:43.323Z,40.40
2017-05-11T10:57:44.777Z,40.23
2017-05-11T10:58:46.230Z,40.03
2017-05-11T10:59:47.673Z,41.58
2017-05-11T11:00:49.112Z,42.08
2017-05-11T11:01:50.555Z,39.55
2017-05-11T11:02:51.991Z,42.18
2017-05-11T11:03:53.440Z,39.09
2017-05-11T11:04:54.873Z,39.01
2017-05-11T11:05:56.319Z,38.91
2017-05-11T11:06:57.755Z,38.62
2017-05-11T11:07:59.204Z,41.52
2017-05-11T11:09:00.654Z,40.56
2017-05-11T11:10:02.079Z,41.60
2017-05-11T11:11:03.513Z,41.56
2017-05-11T11:12:04.949Z,40.23
2017-05-11T11:13:06.431Z,41.77
2017-05-11T11:14:07.916Z,41.02
2017-05-11T11:15:09.352Z,39.37
2017-05-11T11:16:10.793Z,39.20
2017-05-11T11:17:12.229Z,40.96
2017-05-11T11:18:13.669Z,38.95
2017-05-11T11:19:15.101Z,39.24
2017-05-11T11:20:16.538Z,38.95
2017-05-11T11:21:17.987Z,37.79
2017-05-11T11:22:19.427Z,39.72
2017-05-11T11:23:20.868Z,39.69
2017-05-11T11:24:22.320Z,41.55
2017-05-11T11:25:23.764Z,39.01
2017-05-11T11:26:25.205Z,39.39
2017-05-11T11:27:26.647Z,36.90
2017-05-11T11:28:28.096Z,38.35
2017-05-11T11:29:29.536Z,41.06
2017-05-11T11:30:30.976Z,41.64
2017-05-11T11:31:32.422Z,40.00
2017-05-11T11:32:33.862Z,38.41
2017-05-11T11:33:35.297Z,38.99
2017-05-11T11:34:36.736Z,38.87
2017-05-11T11:35:38.265Z,37.42
2017-05-11T11:36:40.465Z,39.57
2017-05-11T11:37:41.904Z,38.81
2017-05-11T11:38:43.373Z,38.45
2017-05-11T11:39:44.804Z,37.19
2017-05-11T11:40:46.245Z,35.75
2017-05-11T11:41:47.687Z,38.58
2017-05-11T11:42:49.122Z,35.86
2017-05-11T11:43:50.565Z,35.56
2017-05-11T11:44:52.000Z,36.43
2017-05-11T11:45:53.444Z,37.40
2017-05-11T11:46:54.887Z,38.58
2017-05-11T11:47:56.327Z,36.44
2017-05-11T11:48:57.766Z,36.08
2017-05-11T11:49:59.203Z,35.96
2017-05-11T11:51:00.650Z,35.57
2017-05-11T11:52:02.096Z,38.27
2017-05-11T11:53:03.537Z,37.79
2017-05-11T11:54:04.978Z,35.09
2017-05-11T11:55:06.424Z,37.82
2017-05-11T11:56:07.853Z,34.22
2017-05-11T11:57:09.303Z,36.46
2017-05-11T11:58:10.741Z,36.38
2017-05-11T11:59:12.177Z,37.24
2017-05-11T12:00:13.617Z,36.44
2017-05-11T12:01:15.055Z,37.49
2017-05-11T12:02:16.509Z,37.57
2017-05-11T12:03:17.952Z,36.98
2017-05-11T12:04:19.387Z,39.01
2017-05-11T12:05:20.828Z,36.78
2017-05-11T12:06:22.271Z,38.23
2017-05-11T12:07:23.703Z,39.39
2017-05-11T12:08:25.148Z,37.19
2017-05-11T12:09:26.585Z,38.45
2017-05-11T12:10:28.023Z,38.15
2017-05-11T12:11:29.465Z,39.14
2017-05-11T12:12:30.911Z,37.40
2017-05-11T12:13:32.365Z,37.77
2017-05-11T12:14:33.804Z,36.64
2017-05-11T12:15:35.250Z,38.19
2017-05-11T12:16:36.695Z,37.51
2017-05-11T12:17:38.135Z,35.86
2017-05-11T12:18:39.581Z,35.40
2017-05-11T12:19:41.022Z,35.69
2017-05-11T12:20:42.458Z,33.86
2017-05-11T12:21:43.897Z,36.60
2017-05-11T12:22:45.341Z,34.08
2017-05-11T12:23:46.774Z,33.69
2017-05-11T12:24:48.740Z,32.81
2017-05-11T12:25:50.183Z,34.64
2017-05-11T12:26:51.629Z,35.11
2017-05-11T12:27:53.066Z,34.33
2017-05-11T12:28:54.501Z,33.18
2017-05-11T12:29:55.942Z,33.09
2017-05-11T12:30:57.385Z,35.69
2017-05-11T12:31:58.824Z,34.33
2017-05-11T12:33:00.259Z,35.38
2017-05-11T12:34:01.698Z,37.13
2017-05-11T12:35:03.953Z,36.04
2017-05-11T12:36:04.539Z,34.97
2017-05-11T12:37:05.982Z,35.09
2017-05-11T12:38:07.421Z,37.24
2017-05-11T12:39:08.864Z,34.44
2017-05-11T12:40:10.307Z,35.32
2017-05-11T12:41:11.745Z,33.94
2017-05-11T12:42:13.195Z,32.79
2017-05-11T12:43:14.626Z,32.59
2017-05-11T12:44:16.069Z,33.47
2017-05-11T12:45:17.512Z,32.41
2017-05-11T12:46:18.955Z,32.02
2017-05-11T12:47:20.400Z,34.35
2017-05-11T12:48:21.854Z,35.03
2017-05-11T12:49:23.300Z,33.09
2017-05-11T12:50:25.464Z,32.39
2017-05-11T12:51:26.144Z,32.97
2017-05-11T12:52:27.579Z,34.70
2017-05-11T12:53:29.023Z,33.46
2017-05-11T12:54:30.469Z,32.86
2017-05-11T12:55:31.905Z,33.46
2017-05-11T12:56:33.348Z,34.04
2017-05-11T12:57:34.791Z,34.81
2017-05-11T12:58:36.228Z,33.56
2017-05-11T12:59:37.675Z,33.15
2017-05-11T13:00:39.115Z,34.97
2017-05-11T13:01:40.553Z,34.09
2017-05-11T13:02:41.999Z,36.43
2017-05-11T13:03:43.433Z,33.91
2017-05-11T13:04:44.878Z,35.57
2017-05-11T13:05:46.317Z,37.21
2017-05-11T13:06:47.754Z,34.09
2017-05-11T13:07:49.199Z,35.15
2017-05-11T13:08:50.639Z,36.49
2017-05-11T13:09:52.075Z,36.66
2017-05-11T13:10:53.519Z,36.68